sensor_id;sensor_type;location;lat;lon;timestamp;temperature;humidity
38592;DHT22;24356;48.460;11.450;2023-01-15T00:01:23;7.10;89.50
38592;DHT22;24356;48.460;11.450;2023-01-15T00:03:51;7.10;89.50
38592;DHT22;24356;48.460;11.450;2023-01-15T00:06:17;7.10;89.40
38592;DHT22;24356;48.460;11.450;2023-01-15T00:08:44;7.10;89.70
38592;DHT22;24356;48.460;11.450;2023-01-15T00:11:09;7.00;89.30
38592;DHT22;24356;48.460;11.450;2023-01-15T00:13:35;7.00;89.40
38592;DHT22;24356;48.460;11.450;2023-01-15T00:16:05;7.00;89.00
38592;DHT22;24356;48.460;11.450;2023-01-15T00:18:31;7.10;89.10
38592;DHT22;24356;48.460;11.450;2023-01-15T00:21:05;7.00;88.90
38592;DHT22;24356;48.460;11.450;2023-01-15T00:27:03;7.00;88.40
38592;DHT22;24356;48.460;11.450;2023-01-15T00:29:47;7.00;88.80
38592;DHT22;24356;48.460;11.450;2023-01-15T00:32:13;7.00;88.40
38592;DHT22;24356;48.460;11.450;2023-01-15T00:34:38;7.00;88.50
38592;DHT22;24356;48.460;11.450;2023-01-15T00:37:04;7.00;88.00
38592;DHT22;24356;48.460;11.450;2023-01-15T00:39:29;7.00;87.90
38592;DHT22;24356;48.460;11.450;2023-01-15T00:41:55;7.00;87.40
38592;DHT22;24356;48.460;11.450;2023-01-15T00:44:21;6.90;87.90
38592;DHT22;24356;48.460;11.450;2023-01-15T00:46:49;6.90;88.10
38592;DHT22;24356;48.460;11.450;2023-01-15T00:49:37;6.90;87.60
38592;DHT22;24356;48.460;11.450;2023-01-15T00:52:33;6.90;88.00
38592;DHT22;24356;48.460;11.450;2023-01-15T01:03:53;6.80;88.00
38592;DHT22;24356;48.460;11.450;2023-01-15T01:06:20;6.80;88.10
38592;DHT22;24356;48.460;11.450;2023-01-15T01:08:46;6.70;88.10
38592;DHT22;24356;48.460;11.450;2023-01-15T01:11:14;6.70;88.10
38592;DHT22;24356;48.460;11.450;2023-01-15T01:13:43;6.80;88.00
38592;DHT22;24356;48.460;11.450;2023-01-15T01:16:31;6.70;87.90
38592;DHT22;24356;48.460;11.450;2023-01-15T01:19:01;6.70;88.30
38592;DHT22;24356;48.460;11.450;2023-01-15T01:21:28;6.60;88.10
38592;DHT22;24356;48.460;11.450;2023-01-15T01:23:57;6.60;88.30
38592;DHT22;24356;48.460;11.450;2023-01-15T01:26:23;6.50;88.30
38592;DHT22;24356;48.460;11.450;2023-01-15T01:28:50;6.50;88.40
38592;DHT22;24356;48.460;11.450;2023-01-15T01:31:17;6.50;88.20
38592;DHT22;24356;48.460;11.450;2023-01-15T01:33:43;6.50;88.50
38592;DHT22;24356;48.460;11.450;2023-01-15T01:36:09;6.50;88.30
38592;DHT22;24356;48.460;11.450;2023-01-15T01:38:35;6.50;88.70
38592;DHT22;24356;48.460;11.450;2023-01-15T01:41:00;6.50;88.50
38592;DHT22;24356;48.460;11.450;2023-01-15T01:43:29;6.50;88.60
38592;DHT22;24356;48.460;11.450;2023-01-15T01:45:56;6.50;88.70
38592;DHT22;24356;48.460;11.450;2023-01-15T01:48:29;6.40;88.60
38592;DHT22;24356;48.460;11.450;2023-01-15T01:50:57;6.40;88.70
38592;DHT22;24356;48.460;11.450;2023-01-15T01:53:28;6.40;88.60
38592;DHT22;24356;48.460;11.450;2023-01-15T01:55:55;6.40;88.80
38592;DHT22;24356;48.460;11.450;2023-01-15T01:58:26;6.40;88.60
38592;DHT22;24356;48.460;11.450;2023-01-15T02:00:53;6.40;88.70
38592;DHT22;24356;48.460;11.450;2023-01-15T02:03:21;6.30;88.90
38592;DHT22;24356;48.460;11.450;2023-01-15T02:05:53;6.30;89.00
38592;DHT22;24356;48.460;11.450;2023-01-15T02:08:21;6.30;88.90
38592;DHT22;24356;48.460;11.450;2023-01-15T02:10:51;6.30;89.10
38592;DHT22;24356;48.460;11.450;2023-01-15T02:13:30;6.30;89.00
38592;DHT22;24356;48.460;11.450;2023-01-15T02:16:04;6.30;89.00
38592;DHT22;24356;48.460;11.450;2023-01-15T02:18:35;6.30;89.00
38592;DHT22;24356;48.460;11.450;2023-01-15T02:27:20;6.10;89.40
38592;DHT22;24356;48.460;11.450;2023-01-15T02:29:55;6.20;89.50
38592;DHT22;24356;48.460;11.450;2023-01-15T02:35:03;6.10;89.20
38592;DHT22;24356;48.460;11.450;2023-01-15T02:37:33;6.10;89.10
38592;DHT22;24356;48.460;11.450;2023-01-15T02:40:01;6.10;89.00
38592;DHT22;24356;48.460;11.450;2023-01-15T02:42:29;6.10;88.90
38592;DHT22;24356;48.460;11.450;2023-01-15T02:44:57;6.10;88.50
38592;DHT22;24356;48.460;11.450;2023-01-15T02:47:27;6.10;89.00
38592;DHT22;24356;48.460;11.450;2023-01-15T02:49:56;6.10;88.80
38592;DHT22;24356;48.460;11.450;2023-01-15T02:52:29;6.10;88.90
38592;DHT22;24356;48.460;11.450;2023-01-15T02:55:13;6.10;89.00
38592;DHT22;24356;48.460;11.450;2023-01-15T02:57:41;6.10;88.80
38592;DHT22;24356;48.460;11.450;2023-01-15T03:00:10;6.00;89.20
38592;DHT22;24356;48.460;11.450;2023-01-15T03:02:47;6.00;89.20
38592;DHT22;24356;48.460;11.450;2023-01-15T03:05:22;6.00;89.30
38592;DHT22;24356;48.460;11.450;2023-01-15T03:07:51;6.00;89.50
38592;DHT22;24356;48.460;11.450;2023-01-15T03:10:33;6.00;89.60
38592;DHT22;24356;48.460;11.450;2023-01-15T03:13:01;5.90;89.80
38592;DHT22;24356;48.460;11.450;2023-01-15T03:18:20;5.90;90.20
38592;DHT22;24356;48.460;11.450;2023-01-15T03:20:51;5.80;90.30
38592;DHT22;24356;48.460;11.450;2023-01-15T03:23:23;5.90;90.30
38592;DHT22;24356;48.460;11.450;2023-01-15T03:25:51;5.80;90.30
38592;DHT22;24356;48.460;11.450;2023-01-15T03:28:22;5.80;90.50
38592;DHT22;24356;48.460;11.450;2023-01-15T03:30:48;5.80;90.30
38592;DHT22;24356;48.460;11.450;2023-01-15T03:33:14;5.70;90.80
38592;DHT22;24356;48.460;11.450;2023-01-15T03:35:55;5.70;90.80
38592;DHT22;24356;48.460;11.450;2023-01-15T03:38:25;5.70;91.00
38592;DHT22;24356;48.460;11.450;2023-01-15T03:41:14;5.60;91.10
38592;DHT22;24356;48.460;11.450;2023-01-15T03:46:56;5.70;91.00
38592;DHT22;24356;48.460;11.450;2023-01-15T03:51:59;5.70;90.90
38592;DHT22;24356;48.460;11.450;2023-01-15T03:54:47;5.60;90.90
38592;DHT22;24356;48.460;11.450;2023-01-15T03:57:29;5.60;91.00
38592;DHT22;24356;48.460;11.450;2023-01-15T03:59:58;5.60;91.10
38592;DHT22;24356;48.460;11.450;2023-01-15T04:02:27;5.60;91.20
38592;DHT22;24356;48.460;11.450;2023-01-15T04:04:54;5.50;91.40
38592;DHT22;24356;48.460;11.450;2023-01-15T04:07:21;5.50;91.50
38592;DHT22;24356;48.460;11.450;2023-01-15T04:09:47;5.50;91.50
38592;DHT22;24356;48.460;11.450;2023-01-15T04:12:14;5.50;91.50
38592;DHT22;24356;48.460;11.450;2023-01-15T04:14:40;5.50;91.60
38592;DHT22;24356;48.460;11.450;2023-01-15T04:17:06;5.50;91.70
38592;DHT22;24356;48.460;11.450;2023-01-15T04:19:32;5.50;91.70
38592;DHT22;24356;48.460;11.450;2023-01-15T04:21:57;5.50;91.80
38592;DHT22;24356;48.460;11.450;2023-01-15T04:24:23;5.40;91.70
38592;DHT22;24356;48.460;11.450;2023-01-15T04:26:49;5.40;91.70
38592;DHT22;24356;48.460;11.450;2023-01-15T04:29:15;5.50;91.70
38592;DHT22;24356;48.460;11.450;2023-01-15T04:31:40;5.40;91.50
38592;DHT22;24356;48.460;11.450;2023-01-15T04:34:06;5.40;91.60
38592;DHT22;24356;48.460;11.450;2023-01-15T04:36:31;5.50;91.50
38592;DHT22;24356;48.460;11.450;2023-01-15T04:39:00;5.50;91.40
38592;DHT22;24356;48.460;11.450;2023-01-15T04:41:26;5.50;91.50
38592;DHT22;24356;48.460;11.450;2023-01-15T04:44:11;5.40;91.60
38592;DHT22;24356;48.460;11.450;2023-01-15T04:46:42;5.40;91.70
38592;DHT22;24356;48.460;11.450;2023-01-15T04:49:11;5.40;91.70
38592;DHT22;24356;48.460;11.450;2023-01-15T04:51:37;5.40;91.70
38592;DHT22;24356;48.460;11.450;2023-01-15T04:54:05;5.40;91.70
38592;DHT22;24356;48.460;11.450;2023-01-15T04:56:32;5.40;91.70
38592;DHT22;24356;48.460;11.450;2023-01-15T04:59:02;5.40;91.70
38592;DHT22;24356;48.460;11.450;2023-01-15T05:01:28;5.40;91.60
38592;DHT22;24356;48.460;11.450;2023-01-15T05:03:53;5.40;91.70
38592;DHT22;24356;48.460;11.450;2023-01-15T05:06:19;5.40;91.50
38592;DHT22;24356;48.460;11.450;2023-01-15T05:08:46;5.50;91.40
38592;DHT22;24356;48.460;11.450;2023-01-15T05:11:12;5.50;91.40
38592;DHT22;24356;48.460;11.450;2023-01-15T05:13:37;5.50;91.50
38592;DHT22;24356;48.460;11.450;2023-01-15T05:16:13;5.40;91.60
38592;DHT22;24356;48.460;11.450;2023-01-15T05:18:43;5.50;91.40
38592;DHT22;24356;48.460;11.450;2023-01-15T05:21:22;5.50;91.50
38592;DHT22;24356;48.460;11.450;2023-01-15T05:23:50;5.40;91.50
38592;DHT22;24356;48.460;11.450;2023-01-15T05:26:16;5.40;91.40
38592;DHT22;24356;48.460;11.450;2023-01-15T05:28:43;5.40;91.70
38592;DHT22;24356;48.460;11.450;2023-01-15T05:31:16;5.40;91.70
38592;DHT22;24356;48.460;11.450;2023-01-15T05:33:42;5.40;91.50
38592;DHT22;24356;48.460;11.450;2023-01-15T05:36:18;5.40;91.40
38592;DHT22;24356;48.460;11.450;2023-01-15T05:38:44;5.50;91.50
38592;DHT22;24356;48.460;11.450;2023-01-15T05:41:15;5.50;91.40
38592;DHT22;24356;48.460;11.450;2023-01-15T05:44:04;5.40;91.40
38592;DHT22;24356;48.460;11.450;2023-01-15T05:46:32;5.40;91.40
38592;DHT22;24356;48.460;11.450;2023-01-15T05:49:03;5.50;91.20
38592;DHT22;24356;48.460;11.450;2023-01-15T05:51:29;5.50;91.30
38592;DHT22;24356;48.460;11.450;2023-01-15T05:53:59;5.40;91.30
38592;DHT22;24356;48.460;11.450;2023-01-15T05:56:25;5.40;91.40
38592;DHT22;24356;48.460;11.450;2023-01-15T05:58:51;5.50;91.20
38592;DHT22;24356;48.460;11.450;2023-01-15T06:01:17;5.50;91.00
38592;DHT22;24356;48.460;11.450;2023-01-15T06:03:42;5.50;91.20
38592;DHT22;24356;48.460;11.450;2023-01-15T06:06:17;5.50;91.10
38592;DHT22;24356;48.460;11.450;2023-01-15T06:08:43;5.50;91.10
38592;DHT22;24356;48.460;11.450;2023-01-15T06:11:10;5.50;91.10
38592;DHT22;24356;48.460;11.450;2023-01-15T06:13:36;5.50;91.20
38592;DHT22;24356;48.460;11.450;2023-01-15T06:16:04;5.50;91.00
38592;DHT22;24356;48.460;11.450;2023-01-15T06:18:30;5.50;91.00
38592;DHT22;24356;48.460;11.450;2023-01-15T06:21:02;5.50;91.10
38592;DHT22;24356;48.460;11.450;2023-01-15T06:23:28;5.50;91.20
38592;DHT22;24356;48.460;11.450;2023-01-15T06:25:54;5.60;91.20
38592;DHT22;24356;48.460;11.450;2023-01-15T06:28:23;5.70;91.30
38592;DHT22;24356;48.460;11.450;2023-01-15T06:30:48;5.70;91.30
38592;DHT22;24356;48.460;11.450;2023-01-15T06:33:14;5.70;91.30
38592;DHT22;24356;48.460;11.450;2023-01-15T06:35:40;5.80;91.40
38592;DHT22;24356;48.460;11.450;2023-01-15T06:38:06;5.90;91.50
38592;DHT22;24356;48.460;11.450;2023-01-15T06:40:32;5.90;91.50
38592;DHT22;24356;48.460;11.450;2023-01-15T06:42:58;6.00;91.60
38592;DHT22;24356;48.460;11.450;2023-01-15T06:45:43;6.00;91.40
38592;DHT22;24356;48.460;11.450;2023-01-15T06:48:28;6.10;91.40
38592;DHT22;24356;48.460;11.450;2023-01-15T06:50:54;6.20;91.40
38592;DHT22;24356;48.460;11.450;2023-01-15T06:53:20;6.20;91.50
38592;DHT22;24356;48.460;11.450;2023-01-15T06:55:46;6.30;91.40
38592;DHT22;24356;48.460;11.450;2023-01-15T06:58:12;6.30;91.60
38592;DHT22;24356;48.460;11.450;2023-01-15T07:00:38;6.40;91.50
38592;DHT22;24356;48.460;11.450;2023-01-15T07:03:07;6.50;91.50
38592;DHT22;24356;48.460;11.450;2023-01-15T07:05:37;6.50;91.50
38592;DHT22;24356;48.460;11.450;2023-01-15T07:08:03;6.50;91.40
38592;DHT22;24356;48.460;11.450;2023-01-15T07:10:33;6.60;91.40
38592;DHT22;24356;48.460;11.450;2023-01-15T07:12:58;6.70;91.40
38592;DHT22;24356;48.460;11.450;2023-01-15T07:15:24;6.70;91.20
38592;DHT22;24356;48.460;11.450;2023-01-15T07:17:53;6.80;91.50
38592;DHT22;24356;48.460;11.450;2023-01-15T07:20:19;6.80;91.40
38592;DHT22;24356;48.460;11.450;2023-01-15T07:22:48;6.90;91.20
38592;DHT22;24356;48.460;11.450;2023-01-15T07:25:14;6.90;91.50
38592;DHT22;24356;48.460;11.450;2023-01-15T07:27:40;6.90;91.30
38592;DHT22;24356;48.460;11.450;2023-01-15T07:30:06;7.00;91.30
38592;DHT22;24356;48.460;11.450;2023-01-15T07:32:33;7.00;91.50
38592;DHT22;24356;48.460;11.450;2023-01-15T07:35:00;7.10;91.40
38592;DHT22;24356;48.460;11.450;2023-01-15T07:37:25;7.10;91.20
38592;DHT22;24356;48.460;11.450;2023-01-15T07:39:51;7.10;91.30
38592;DHT22;24356;48.460;11.450;2023-01-15T07:42:16;7.10;91.20
38592;DHT22;24356;48.460;11.450;2023-01-15T07:45:00;7.20;91.30
38592;DHT22;24356;48.460;11.450;2023-01-15T07:48:08;7.20;91.40
38592;DHT22;24356;48.460;11.450;2023-01-15T07:50:53;7.30;91.40
38592;DHT22;24356;48.460;11.450;2023-01-15T07:53:19;7.30;91.10
38592;DHT22;24356;48.460;11.450;2023-01-15T07:55:45;7.30;91.30
38592;DHT22;24356;48.460;11.450;2023-01-15T07:58:10;7.40;91.30
38592;DHT22;24356;48.460;11.450;2023-01-15T08:00:36;7.40;91.30
38592;DHT22;24356;48.460;11.450;2023-01-15T08:03:03;7.50;91.30
38592;DHT22;24356;48.460;11.450;2023-01-15T08:05:28;7.50;91.30
38592;DHT22;24356;48.460;11.450;2023-01-15T08:07:54;7.60;91.30
38592;DHT22;24356;48.460;11.450;2023-01-15T08:10:19;7.60;90.90
38592;DHT22;24356;48.460;11.450;2023-01-15T08:12:48;7.60;91.10
38592;DHT22;24356;48.460;11.450;2023-01-15T08:15:37;7.70;90.80
38592;DHT22;24356;48.460;11.450;2023-01-15T08:18:03;7.70;91.10
38592;DHT22;24356;48.460;11.450;2023-01-15T08:20:34;7.70;91.00
38592;DHT22;24356;48.460;11.450;2023-01-15T08:23:01;7.80;91.00
38592;DHT22;24356;48.460;11.450;2023-01-15T08:25:26;7.80;91.10
38592;DHT22;24356;48.460;11.450;2023-01-15T08:27:52;7.90;90.90
38592;DHT22;24356;48.460;11.450;2023-01-15T08:30:22;7.90;90.90
38592;DHT22;24356;48.460;11.450;2023-01-15T08:32:48;7.90;91.10
38592;DHT22;24356;48.460;11.450;2023-01-15T08:35:13;8.00;90.70
38592;DHT22;24356;48.460;11.450;2023-01-15T08:37:40;8.10;90.70
38592;DHT22;24356;48.460;11.450;2023-01-15T08:40:06;8.10;90.70
38592;DHT22;24356;48.460;11.450;2023-01-15T08:42:32;8.10;90.40
38592;DHT22;24356;48.460;11.450;2023-01-15T08:44:57;8.20;90.70
38592;DHT22;24356;48.460;11.450;2023-01-15T08:47:23;8.30;90.60
38592;DHT22;24356;48.460;11.450;2023-01-15T08:49:49;8.30;90.50
38592;DHT22;24356;48.460;11.450;2023-01-15T08:52:14;8.30;90.50
38592;DHT22;24356;48.460;11.450;2023-01-15T08:54:40;8.30;90.20
38592;DHT22;24356;48.460;11.450;2023-01-15T08:57:06;8.40;90.20
38592;DHT22;24356;48.460;11.450;2023-01-15T08:59:34;8.40;90.30
38592;DHT22;24356;48.460;11.450;2023-01-15T09:02:00;8.40;90.20
38592;DHT22;24356;48.460;11.450;2023-01-15T09:04:26;8.40;89.90
38592;DHT22;24356;48.460;11.450;2023-01-15T09:06:51;8.50;89.90
38592;DHT22;24356;48.460;11.450;2023-01-15T09:09:17;8.50;89.60
38592;DHT22;24356;48.460;11.450;2023-01-15T09:11:43;8.60;89.90
38592;DHT22;24356;48.460;11.450;2023-01-15T09:14:12;8.60;89.80
38592;DHT22;24356;48.460;11.450;2023-01-15T09:16:38;8.70;89.70
38592;DHT22;24356;48.460;11.450;2023-01-15T09:19:05;8.70;89.90
38592;DHT22;24356;48.460;11.450;2023-01-15T09:21:31;8.70;89.70
38592;DHT22;24356;48.460;11.450;2023-01-15T09:23:57;8.70;89.80
38592;DHT22;24356;48.460;11.450;2023-01-15T09:28:56;8.80;89.70
38592;DHT22;24356;48.460;11.450;2023-01-15T09:31:23;8.80;89.40
38592;DHT22;24356;48.460;11.450;2023-01-15T09:33:49;8.80;89.40
38592;DHT22;24356;48.460;11.450;2023-01-15T09:36:22;8.80;89.20
38592;DHT22;24356;48.460;11.450;2023-01-15T09:38:48;8.70;89.30
38592;DHT22;24356;48.460;11.450;2023-01-15T09:41:15;8.70;89.50
38592;DHT22;24356;48.460;11.450;2023-01-15T09:57:28;8.10;90.30
38592;DHT22;24356;48.460;11.450;2023-01-15T09:59:55;8.10;90.50
38592;DHT22;24356;48.460;11.450;2023-01-15T10:02:43;8.00;90.30
38592;DHT22;24356;48.460;11.450;2023-01-15T10:05:27;8.00;90.20
38592;DHT22;24356;48.460;11.450;2023-01-15T10:07:57;8.00;90.40
38592;DHT22;24356;48.460;11.450;2023-01-15T10:10:27;7.90;90.30
38592;DHT22;24356;48.460;11.450;2023-01-15T10:13:03;7.90;90.60
38592;DHT22;24356;48.460;11.450;2023-01-15T10:18:04;7.80;90.70
38592;DHT22;24356;48.460;11.450;2023-01-15T10:21:12;7.80;90.60
38592;DHT22;24356;48.460;11.450;2023-01-15T10:24:06;7.70;90.70
38592;DHT22;24356;48.460;11.450;2023-01-15T10:26:38;7.70;90.70
38592;DHT22;24356;48.460;11.450;2023-01-15T10:40:14;7.50;90.80
38592;DHT22;24356;48.460;11.450;2023-01-15T10:45:47;7.50;90.50
38592;DHT22;24356;48.460;11.450;2023-01-15T10:51:06;7.40;90.60
38592;DHT22;24356;48.460;11.450;2023-01-15T10:56:23;7.30;90.60
38592;DHT22;24356;48.460;11.450;2023-01-15T10:59:19;7.30;90.70
38592;DHT22;24356;48.460;11.450;2023-01-15T11:01:49;7.20;90.80
38592;DHT22;24356;48.460;11.450;2023-01-15T11:04:15;7.20;90.80
38592;DHT22;24356;48.460;11.450;2023-01-15T11:06:41;7.20;90.60
38592;DHT22;24356;48.460;11.450;2023-01-15T11:09:15;7.20;90.50
38592;DHT22;24356;48.460;11.450;2023-01-15T11:11:48;7.20;90.40
38592;DHT22;24356;48.460;11.450;2023-01-15T11:17:27;7.10;90.20
38592;DHT22;24356;48.460;11.450;2023-01-15T11:22:56;7.10;90.00
38592;DHT22;24356;48.460;11.450;2023-01-15T11:25:29;7.00;90.30
38592;DHT22;24356;48.460;11.450;2023-01-15T11:27:56;7.00;90.30
38592;DHT22;24356;48.460;11.450;2023-01-15T11:30:31;7.00;90.20
38592;DHT22;24356;48.460;11.450;2023-01-15T11:32:59;6.90;90.20
38592;DHT22;24356;48.460;11.450;2023-01-15T11:35:25;6.90;90.20
38592;DHT22;24356;48.460;11.450;2023-01-15T11:38:04;6.90;90.20
38592;DHT22;24356;48.460;11.450;2023-01-15T11:40:30;6.80;90.50
38592;DHT22;24356;48.460;11.450;2023-01-15T11:42:56;6.80;90.70
38592;DHT22;24356;48.460;11.450;2023-01-15T11:45:50;6.80;90.60
38592;DHT22;24356;48.460;11.450;2023-01-15T11:48:43;6.80;90.70
38592;DHT22;24356;48.460;11.450;2023-01-15T11:51:29;6.70;90.50
38592;DHT22;24356;48.460;11.450;2023-01-15T11:54:01;6.70;90.80
38592;DHT22;24356;48.460;11.450;2023-01-15T11:56:29;6.60;90.90
38592;DHT22;24356;48.460;11.450;2023-01-15T11:58:58;6.60;90.80
38592;DHT22;24356;48.460;11.450;2023-01-15T12:01:31;6.60;90.90
38592;DHT22;24356;48.460;11.450;2023-01-15T12:04:02;6.60;90.80
38592;DHT22;24356;48.460;11.450;2023-01-15T12:06:30;6.60;90.90
38592;DHT22;24356;48.460;11.450;2023-01-15T12:12:37;6.60;90.80
38592;DHT22;24356;48.460;11.450;2023-01-15T12:17:47;6.60;90.70
38592;DHT22;24356;48.460;11.450;2023-01-15T12:26:25;6.60;90.90
38592;DHT22;24356;48.460;11.450;2023-01-15T12:29:18;6.50;90.90
38592;DHT22;24356;48.460;11.450;2023-01-15T12:31:55;6.50;91.10
38592;DHT22;24356;48.460;11.450;2023-01-15T12:37:04;6.50;90.90
38592;DHT22;24356;48.460;11.450;2023-01-15T12:39:35;6.50;90.90
38592;DHT22;24356;48.460;11.450;2023-01-15T12:42:10;6.50;90.70
38592;DHT22;24356;48.460;11.450;2023-01-15T12:45:06;6.50;90.90
38592;DHT22;24356;48.460;11.450;2023-01-15T12:50:35;6.40;90.80
38592;DHT22;24356;48.460;11.450;2023-01-15T12:53:17;6.40;91.00
38592;DHT22;24356;48.460;11.450;2023-01-15T12:55:59;6.40;91.40
38592;DHT22;24356;48.460;11.450;2023-01-15T12:58:44;6.30;91.10
38592;DHT22;24356;48.460;11.450;2023-01-15T13:01:21;6.30;91.10
38592;DHT22;24356;48.460;11.450;2023-01-15T13:04:11;6.20;91.20
38592;DHT22;24356;48.460;11.450;2023-01-15T13:06:41;6.20;91.20
38592;DHT22;24356;48.460;11.450;2023-01-15T13:12:00;6.20;91.50
38592;DHT22;24356;48.460;11.450;2023-01-15T13:14:27;6.10;91.60
38592;DHT22;24356;48.460;11.450;2023-01-15T13:17:22;6.10;91.40
38592;DHT22;24356;48.460;11.450;2023-01-15T13:20:26;6.10;91.50
38592;DHT22;24356;48.460;11.450;2023-01-15T13:26:33;6.00;91.70
38592;DHT22;24356;48.460;11.450;2023-01-15T13:32:32;5.80;91.60
38592;DHT22;24356;48.460;11.450;2023-01-15T13:34:52;5.70;91.70
38592;DHT22;24356;48.460;11.450;2023-01-15T13:37:28;5.70;91.80
38592;DHT22;24356;48.460;11.450;2023-01-15T13:42:45;5.60;92.10
38592;DHT22;24356;48.460;11.450;2023-01-15T13:45:31;5.50;92.20
38592;DHT22;24356;48.460;11.450;2023-01-15T13:48:11;5.40;92.50
38592;DHT22;24356;48.460;11.450;2023-01-15T13:50:53;5.40;92.50
38592;DHT22;24356;48.460;11.450;2023-01-15T13:53:51;5.40;92.50
38592;DHT22;24356;48.460;11.450;2023-01-15T13:56:31;5.30;92.40
38592;DHT22;24356;48.460;11.450;2023-01-15T13:58:58;5.30;92.30
38592;DHT22;24356;48.460;11.450;2023-01-15T14:01:34;5.30;92.60
38592;DHT22;24356;48.460;11.450;2023-01-15T14:04:13;5.30;92.60
38592;DHT22;24356;48.460;11.450;2023-01-15T14:06:49;5.30;92.60
38592;DHT22;24356;48.460;11.450;2023-01-15T14:32:36;5.00;92.70
38592;DHT22;24356;48.460;11.450;2023-01-15T14:34:59;5.00;92.80
38592;DHT22;24356;48.460;11.450;2023-01-15T14:37:32;4.90;92.80
38592;DHT22;24356;48.460;11.450;2023-01-15T14:40:01;4.80;91.60
38592;DHT22;24356;48.460;11.450;2023-01-15T14:42:36;4.40;92.00
38592;DHT22;24356;48.460;11.450;2023-01-15T14:45:28;4.50;93.00
38592;DHT22;24356;48.460;11.450;2023-01-15T14:47:57;4.60;93.50
38592;DHT22;24356;48.460;11.450;2023-01-15T14:50:40;4.60;93.50
38592;DHT22;24356;48.460;11.450;2023-01-15T14:55:50;4.60;93.40
38592;DHT22;24356;48.460;11.450;2023-01-15T15:00:51;4.60;93.10
38592;DHT22;24356;48.460;11.450;2023-01-15T15:03:25;4.60;93.30
38592;DHT22;24356;48.460;11.450;2023-01-15T15:05:52;4.60;93.40
38592;DHT22;24356;48.460;11.450;2023-01-15T15:08:18;4.50;93.40
38592;DHT22;24356;48.460;11.450;2023-01-15T15:10:49;4.50;93.20
38592;DHT22;24356;48.460;11.450;2023-01-15T15:16:12;4.50;93.40
38592;DHT22;24356;48.460;11.450;2023-01-15T15:18:46;4.50;93.40
38592;DHT22;24356;48.460;11.450;2023-01-15T15:21:20;4.50;93.30
38592;DHT22;24356;48.460;11.450;2023-01-15T15:24:03;4.40;93.30
38592;DHT22;24356;48.460;11.450;2023-01-15T15:26:35;4.40;93.60
38592;DHT22;24356;48.460;11.450;2023-01-15T15:29:03;4.40;93.60
38592;DHT22;24356;48.460;11.450;2023-01-15T15:31:42;4.30;93.30
38592;DHT22;24356;48.460;11.450;2023-01-15T15:34:26;4.30;93.40
38592;DHT22;24356;48.460;11.450;2023-01-15T15:36:55;4.30;93.30
38592;DHT22;24356;48.460;11.450;2023-01-15T15:39:39;4.20;93.30
38592;DHT22;24356;48.460;11.450;2023-01-15T15:42:16;4.20;93.50
38592;DHT22;24356;48.460;11.450;2023-01-15T15:45:17;4.20;93.60
38592;DHT22;24356;48.460;11.450;2023-01-15T15:48:11;4.20;93.60
38592;DHT22;24356;48.460;11.450;2023-01-15T15:50:55;4.20;93.70
38592;DHT22;24356;48.460;11.450;2023-01-15T15:53:21;4.10;93.70
38592;DHT22;24356;48.460;11.450;2023-01-15T15:55:46;4.10;93.40
38592;DHT22;24356;48.460;11.450;2023-01-15T15:58:34;4.10;93.60
38592;DHT22;24356;48.460;11.450;2023-01-15T16:01:00;4.00;93.60
38592;DHT22;24356;48.460;11.450;2023-01-15T16:03:29;4.00;93.50
38592;DHT22;24356;48.460;11.450;2023-01-15T16:08:21;4.00;93.60
38592;DHT22;24356;48.460;11.450;2023-01-15T16:10:52;4.00;93.60
38592;DHT22;24356;48.460;11.450;2023-01-15T16:13:26;3.90;93.60
38592;DHT22;24356;48.460;11.450;2023-01-15T16:15:55;3.90;93.70
38592;DHT22;24356;48.460;11.450;2023-01-15T16:18:35;3.90;93.60
38592;DHT22;24356;48.460;11.450;2023-01-15T16:21:07;3.90;93.60
38592;DHT22;24356;48.460;11.450;2023-01-15T16:23:33;3.90;93.60
38592;DHT22;24356;48.460;11.450;2023-01-15T16:26:14;3.90;93.70
38592;DHT22;24356;48.460;11.450;2023-01-15T16:28:49;3.90;93.60
38592;DHT22;24356;48.460;11.450;2023-01-15T16:31:16;3.90;93.60
38592;DHT22;24356;48.460;11.450;2023-01-15T16:33:45;3.80;93.50
38592;DHT22;24356;48.460;11.450;2023-01-15T16:36:11;3.80;93.70
38592;DHT22;24356;48.460;11.450;2023-01-15T16:38:40;3.90;93.90
38592;DHT22;24356;48.460;11.450;2023-01-15T16:41:19;3.90;93.90
38592;DHT22;24356;48.460;11.450;2023-01-15T16:43:52;3.90;93.70
38592;DHT22;24356;48.460;11.450;2023-01-15T16:46:19;3.90;93.40
38592;DHT22;24356;48.460;11.450;2023-01-15T16:48:46;3.80;93.40
38592;DHT22;24356;48.460;11.450;2023-01-15T16:51:33;3.80;93.60
38592;DHT22;24356;48.460;11.450;2023-01-15T16:54:04;3.90;93.40
38592;DHT22;24356;48.460;11.450;2023-01-15T17:02:02;3.90;93.50
38592;DHT22;24356;48.460;11.450;2023-01-15T17:04:40;3.80;93.60
38592;DHT22;24356;48.460;11.450;2023-01-15T17:07:19;3.90;93.70
38592;DHT22;24356;48.460;11.450;2023-01-15T17:09:54;3.90;93.50
38592;DHT22;24356;48.460;11.450;2023-01-15T17:15:28;3.80;93.20
38592;DHT22;24356;48.460;11.450;2023-01-15T17:17:54;3.80;93.40
38592;DHT22;24356;48.460;11.450;2023-01-15T17:20:22;3.80;93.40
38592;DHT22;24356;48.460;11.450;2023-01-15T17:22:52;3.80;93.30
38592;DHT22;24356;48.460;11.450;2023-01-15T17:27:46;3.80;93.40
38592;DHT22;24356;48.460;11.450;2023-01-15T17:30:12;3.80;93.70
38592;DHT22;24356;48.460;11.450;2023-01-15T17:32:38;3.80;93.50
38592;DHT22;24356;48.460;11.450;2023-01-15T17:35:08;3.80;93.30
38592;DHT22;24356;48.460;11.450;2023-01-15T17:37:41;3.80;93.50
38592;DHT22;24356;48.460;11.450;2023-01-15T17:40:10;3.80;93.20
38592;DHT22;24356;48.460;11.450;2023-01-15T17:42:37;3.80;93.10
38592;DHT22;24356;48.460;11.450;2023-01-15T17:45:03;3.80;93.40
38592;DHT22;24356;48.460;11.450;2023-01-15T17:47:28;3.80;93.20
38592;DHT22;24356;48.460;11.450;2023-01-15T17:49:54;3.80;93.30
38592;DHT22;24356;48.460;11.450;2023-01-15T17:52:19;3.70;93.30
38592;DHT22;24356;48.460;11.450;2023-01-15T17:54:45;3.70;93.20
38592;DHT22;24356;48.460;11.450;2023-01-15T17:57:46;3.70;93.20
38592;DHT22;24356;48.460;11.450;2023-01-15T18:00:30;3.70;93.10
38592;DHT22;24356;48.460;11.450;2023-01-15T18:03:16;3.60;93.10
38592;DHT22;24356;48.460;11.450;2023-01-15T18:06:02;3.60;92.90
38592;DHT22;24356;48.460;11.450;2023-01-15T18:08:29;3.60;92.30
38592;DHT22;24356;48.460;11.450;2023-01-15T18:10:55;3.50;92.70
38592;DHT22;24356;48.460;11.450;2023-01-15T18:13:21;3.50;93.00
38592;DHT22;24356;48.460;11.450;2023-01-15T18:15:46;3.50;92.70
38592;DHT22;24356;48.460;11.450;2023-01-15T18:18:12;3.50;92.40
38592;DHT22;24356;48.460;11.450;2023-01-15T18:20:40;3.50;93.20
38592;DHT22;24356;48.460;11.450;2023-01-15T18:23:10;3.50;92.70
38592;DHT22;24356;48.460;11.450;2023-01-15T18:25:36;3.40;93.00